Time;durP1;ratioP1;P1;durP2;ratioP2;P2;SDS_P1;SDS_P2;PMS_P1;PMS_P2;Temp;Humidity;BMP_temperature;BMP_pressure;BME280_temperature;BME280_humidity;BME280_pressure;Samples;Min_cycle;Max_cycle;Signal;HPM_P1;HPM_P2
2022/05/17 00:00:28;;;;;;;9.77;5.18;;;;;;;27.69;47.73;99592.69;5056659;28;20040;-83
2022/05/17 00:02:53;;;;;;;7.55;5.10;;;;;;;27.68;47.70;99602.56;5074511;28;20443;-81
2022/05/17 00:05:19;;;;;;;5.97;4.10;;;;;;;27.67;47.71;99605.38;5057775;28;20036;-84
2022/05/17 00:07:44;;;;;;;9.00;4.60;;;;;;;27.66;47.32;99603.69;5078936;28;20028;-83
2022/05/17 00:10:11;;;;;;;8.32;4.95;;;;;;;27.66;47.86;99606.38;5078848;28;20435;-83
2022/05/17 00:12:37;;;;;;;8.20;4.47;;;;;;;27.65;47.58;99605.50;5062128;28;20040;-83
2022/05/17 00:15:04;;;;;;;6.93;4.10;;;;;;;27.65;47.93;99607.34;5060720;28;20432;-81
2022/05/17 00:17:30;;;;;;;8.40;4.28;;;;;;;27.61;47.80;99602.25;5060046;28;20036;-82
2022/05/17 00:19:55;;;;;;;9.93;4.63;;;;;;;27.61;48.01;99594.19;5076607;28;20085;-82
2022/05/17 00:22:21;;;;;;;8.27;4.25;;;;;;;27.60;47.76;99603.22;5060291;28;20024;-81
2022/05/17 00:24:47;;;;;;;6.13;4.32;;;;;;;27.60;47.73;99589.00;5060643;28;20071;-81
2022/05/17 00:27:12;;;;;;;7.32;4.50;;;;;;;27.60;47.93;99589.00;5078904;28;20036;-81
2022/05/17 00:29:38;;;;;;;6.43;4.18;;;;;;;27.58;47.86;99581.09;5079588;28;20351;-80
2022/05/17 00:32:04;;;;;;;6.80;4.35;;;;;;;27.58;48.13;99586.44;5077350;28;20063;-82
2022/05/17 00:34:31;;;;;;;6.95;4.50;;;;;;;27.55;48.12;99584.00;5076098;28;20072;-80
2022/05/17 00:36:57;;;;;;;8.02;4.55;;;;;;;27.55;47.93;99586.66;5077162;28;20028;-81
2022/05/17 00:39:23;;;;;;;6.45;4.35;;;;;;;27.54;48.23;99578.75;5059626;28;20111;-82
2022/05/17 00:41:49;;;;;;;8.63;4.45;;;;;;;27.54;47.89;99581.44;5077112;28;20438;-81
2022/05/17 00:47:10;;;;;;;7.53;4.25;;;;;;;27.52;48.10;99586.09;5077506;28;20483;-81
2022/05/17 00:49:43;;;;;;;;;;;;;;;27.53;48.15;99583.28;5077831;28;20024;-82
2022/05/17 00:52:16;;;;;;;6.95;4.50;;;;;;;27.50;48.01;99570.13;5061643;28;19975;-80
2022/05/17 00:54:43;;;;;;;7.57;4.50;;;;;;;27.48;48.01;99574.78;5059472;28;20029;-85
2022/05/17 00:57:25;;;;;;;7.57;4.32;;;;;;;27.48;47.84;99574.78;5060038;28;20036;-81
2022/05/17 00:59:52;;;;;;;6.32;4.30;;;;;;;27.45;47.77;99569.72;5076865;28;20036;-81
2022/05/17 01:02:17;;;;;;;7.95;4.88;;;;;;;27.44;48.15;99559.94;5060425;28;20381;-81
2022/05/17 01:04:43;;;;;;;7.45;4.15;;;;;;;27.44;48.05;99562.63;5059468;28;20039;-82
2022/05/17 01:07:14;;;;;;;6.95;4.35;;;;;;;27.43;48.33;99561.81;5059304;28;20028;-83
2022/05/17 01:09:39;;;;;;;8.65;4.30;;;;;;;27.40;48.26;99556.69;5059042;28;20035;-81
2022/05/17 01:12:06;;;;;;;6.90;4.28;;;;;;;27.41;48.34;99557.56;5077839;28;20028;-81
2022/05/17 01:17:16;;;;;;;8.73;4.30;;;;;;;27.39;48.09;99543.44;5076567;28;20039;-82
2022/05/17 01:19:43;;;;;;;8.38;4.47;;;;;;;27.38;48.20;99539.91;5075613;28;20028;-81
2022/05/17 01:22:10;;;;;;;8.02;4.78;;;;;;;27.37;48.21;99540.03;5076870;28;20016;-81
2022/05/17 01:24:36;;;;;;;6.25;4.18;;;;;;;27.36;48.02;99538.34;5076331;28;20100;-81
2022/05/17 01:27:10;;;;;;;7.28;4.10;;;;;;;27.35;48.22;99542.84;5076484;28;20116;-80
2022/05/17 01:29:41;;;;;;;7.35;4.35;;;;;;;27.33;48.17;99537.66;5074943;28;20039;-81
2022/05/17 01:32:09;;;;;;;7.80;4.43;;;;;;;27.31;48.04;99536.91;5075907;28;20031;-82
2022/05/17 01:34:36;;;;;;;9.25;4.45;;;;;;;27.33;47.95;99536.78;5075156;28;20029;-81
2022/05/17 01:37:03;;;;;;;7.57;4.50;;;;;;;27.30;48.10;99535.22;5077973;28;20117;-80
2022/05/17 01:39:28;;;;;;;7.40;4.18;;;;;;;27.30;47.93;99532.53;5076156;28;20025;-80
2022/05/17 01:41:54;;;;;;;7.20;4.20;;;;;;;27.28;48.12;99534.53;5058298;28;20449;-81
2022/05/17 01:44:20;;;;;;;6.30;4.03;;;;;;;27.27;48.15;99530.16;5058450;28;20024;-81
2022/05/17 01:46:46;;;;;;;6.88;4.15;;;;;;;27.28;47.88;99526.47;5075087;28;20040;-80
2022/05/17 01:49:11;;;;;;;6.72;4.47;;;;;;;27.27;47.79;99530.16;5075014;28;20032;-81
2022/05/17 01:51:37;;;;;;;6.80;4.32;;;;;;;27.26;47.88;99522.25;5075006;28;20115;-81
2022/05/17 01:54:03;;;;;;;7.18;4.32;;;;;;;27.25;47.89;99523.22;5058951;28;20123;-82
2022/05/17 01:56:28;;;;;;;7.80;4.07;;;;;;;27.24;48.32;99525.03;5075742;28;20028;-81
2022/05/17 01:58:54;;;;;;;7.70;4.15;;;;;;;27.24;48.40;99518.81;5077505;28;20458;-81
2022/05/17 02:01:19;;;;;;;8.55;4.63;;;;;;;27.22;48.16;99521.66;5058396;28;20526;-81
2022/05/17 02:54:40;;;;;;;8.02;4.70;;;;;;;27.01;48.28;99519.84;5072003;28;20060;-81
2022/05/17 02:57:23;;;;;;;7.70;4.43;;;;;;;27.00;48.23;99518.16;5074774;28;20465;-81
2022/05/17 03:00:24;;;;;;;8.95;4.07;;;;;;;27.00;48.22;99518.16;5073901;28;20490;-81
2022/05/17 03:02:53;;;;;;;6.97;4.65;;;;;;;26.98;48.11;99514.78;5059086;28;20052;-80
2022/05/17 03:05:18;;;;;;;7.53;4.63;;;;;;;26.98;48.12;99513.91;5074770;28;20063;-82
2022/05/17 03:07:44;;;;;;;7.45;4.20;;;;;;;26.97;48.07;99517.56;5073755;28;20056;-81
2022/05/17 03:10:29;;;;;;;6.47;4.28;;;;;;;26.95;48.25;99515.03;5057028;28;20020;-80
2022/05/17 03:13:25;;;;;;;5.78;3.95;;;;;;;26.95;48.19;99515.03;5074704;28;20043;-81
2022/05/17 03:16:28;;;;;;;7.38;3.88;;;;;;;26.92;48.19;99508.09;5058015;28;20106;-81
2022/05/17 03:19:38;;;;;;;6.88;4.10;;;;;;;26.92;48.22;99510.78;5073969;28;20115;-81
2022/05/17 03:22:23;;;;;;;6.18;3.90;;;;;;;26.92;48.02;99504.59;5073892;28;20035;-82
2022/05/17 03:25:07;;;;;;;7.40;4.13;;;;;;;26.91;48.45;99505.50;5075319;28;20354;-82
2022/05/17 03:27:32;;;;;;;7.45;4.20;;;;;;;26.88;47.98;99505.78;5076471;28;20028;-81
2022/05/17 03:33:23;;;;;;;7.47;4.03;;;;;;;26.85;48.09;99504.22;5074879;28;20093;-82
2022/05/17 03:35:48;;;;;;;6.35;4.35;;;;;;;26.85;48.55;99511.38;5074695;28;20029;-83
2022/05/17 03:38:33;;;;;;;6.05;3.83;;;;;;;26.83;48.33;99503.50;5073737;28;20051;-82
2022/05/17 03:41:48;;;;;;;8.23;4.07;;;;;;;26.83;48.57;99510.69;5076274;28;20016;-82
2022/05/17 03:44:15;;;;;;;8.98;4.18;;;;;;;26.79;48.56;99510.94;5080260;28;20441;-83
2022/05/17 03:47:33;;;;;;;6.68;3.70;;;;;;;26.79;48.22;99510.94;5077611;28;20020;-83
2022/05/17 03:50:12;;;;;;;8.32;4.35;;;;;;;26.78;48.32;99506.56;5077372;28;20052;-83
2022/05/17 03:52:37;;;;;;;8.43;4.00;;;;;;;26.77;48.61;99504.88;5077312;28;20024;-80
2022/05/17 03:55:34;;;;;;;7.85;3.88;;;;;;;26.75;48.47;99508.66;5078138;28;20105;-82
2022/05/17 03:58:33;;;;;;;6.68;3.30;;;;;;;26.74;48.41;99513.19;5077378;28;20115;-81
2022/05/17 04:01:17;;;;;;;7.70;4.32;;;;;;;26.74;48.47;99513.19;5060814;28;20431;-83
2022/05/17 04:03:55;;;;;;;7.30;3.97;;;;;;;26.72;48.51;99515.13;5060596;28;20024;-82
2022/05/17 04:06:36;;;;;;;6.32;4.13;;;;;;;26.71;48.43;99518.78;5060928;28;20481;-82
2022/05/17 04:09:42;;;;;;;7.38;4.47;;;;;;;26.70;48.33;99517.09;5060699;28;20060;-83
2022/05/17 04:15:30;;;;;;;7.65;4.10;;;;;;;26.66;48.51;99515.63;5077525;28;20093;-82
2022/05/17 04:21:33;;;;;;;6.65;3.80;;;;;;;26.63;48.54;99515.91;5077457;28;20039;-82
2022/05/17 04:24:34;;;;;;;7.30;4.53;;;;;;;26.62;48.44;99524.91;5077301;28;20047;-83
2022/05/17 04:30:24;;;;;;;6.57;4.30;;;;;;;26.60;48.69;99522.38;5078901;28;20039;-83
2022/05/17 04:33:09;;;;;;;6.38;3.58;;;;;;;26.59;48.42;99522.50;5079017;28;20059;-82
2022/05/17 04:36:02;;;;;;;5.90;3.70;;;;;;;26.57;48.60;99516.44;5078798;28;20099;-81
2022/05/17 04:38:28;;;;;;;5.55;4.07;;;;;;;26.56;48.65;99520.06;5079341;28;20094;-82
2022/05/17 04:41:19;;;;;;;6.15;3.83;;;;;;;26.57;48.59;99524.47;5062618;28;20483;-83
2022/05/17 04:43:44;;;;;;;6.65;4.50;;;;;;;26.56;48.64;99525.41;5062331;28;20028;-83
2022/05/17 04:46:13;;;;;;;7.63;3.83;;;;;;;26.53;48.58;99527.38;5079166;28;20512;-82
2022/05/17 04:48:45;;;;;;;7.18;4.65;;;;;;;26.53;48.31;99527.38;5080733;28;20052;-83
2022/05/17 04:51:17;;;;;;;6.72;3.90;;;;;;;26.53;48.45;99532.72;5081187;28;20025;-83
2022/05/17 04:53:57;;;;;;;8.02;4.70;;;;;;;26.50;48.49;99522.31;5064158;28;20102;-85
2022/05/17 04:56:25;;;;;;;7.97;4.60;;;;;;;26.50;48.51;99533.00;5079476;28;20062;-84
2022/05/17 04:59:12;;;;;;;8.23;4.15;;;;;;;26.49;48.52;99531.28;5078009;28;20100;-80
2022/05/17 05:01:38;;;;;;;6.68;3.63;;;;;;;26.49;48.25;99530.44;5059568;28;20515;-83
2022/05/17 05:04:04;;;;;;;8.32;4.28;;;;;;;26.46;48.35;99531.56;5077241;28;20028;-83
2022/05/17 05:06:30;;;;;;;7.63;3.92;;;;;;;26.45;48.60;99535.22;5060203;28;20077;-82
2022/05/17 05:08:55;;;;;;;6.20;3.90;;;;;;;26.45;48.64;99532.53;5077766;28;20035;-81
2022/05/17 05:11:43;;;;;;;8.40;4.47;;;;;;;26.45;48.58;99534.34;5059331;28;20406;-81
2022/05/17 05:14:20;;;;;;;6.00;4.18;;;;;;;26.44;48.46;99529.97;5059551;28;20025;-81
2022/05/17 05:17:42;;;;;;;10.30;4.32;;;;;;;26.43;48.53;99537.16;5059247;28;20355;-81
2022/05/17 05:20:11;;;;;;;5.95;4.00;;;;;;;26.43;48.54;99533.63;5075864;28;20111;-81
2022/05/17 05:22:37;;;;;;;7.25;4.30;;;;;;;26.43;48.66;99542.50;5059117;28;20020;-81
2022/05/17 05:25:34;;;;;;;8.95;4.25;;;;;;;26.42;48.54;99540.81;5059089;28;20131;-82
2022/05/17 05:28:01;;;;;;;9.20;4.50;;;;;;;26.43;48.65;99547.84;5076083;28;20031;-80
2022/05/17 05:30:33;;;;;;;7.80;4.28;;;;;;;26.42;48.58;99546.16;5059106;28;20035;-81
2022/05/17 05:33:23;;;;;;;6.40;3.88;;;;;;;26.42;48.81;99543.47;5076870;28;20028;-81
2022/05/17 05:35:58;;;;;;;6.50;4.30;;;;;;;26.42;48.61;99539.97;5076990;28;20024;-83
2022/05/17 05:38:33;;;;;;;8.50;4.35;;;;;;;26.43;48.52;99547.84;5077406;28;20085;-81
2022/05/17 05:40:59;;;;;;;9.25;4.63;;;;;;;26.42;48.78;99550.66;5075800;28;20115;-82
2022/05/17 05:43:25;;;;;;;8.82;5.10;;;;;;;26.42;48.64;99543.47;5076746;28;20097;-81
2022/05/17 05:46:25;;;;;;;8.02;4.65;;;;;;;26.42;48.59;99550.66;5058641;28;20093;-84
2022/05/17 05:48:53;;;;;;;8.07;4.20;;;;;;;26.42;48.65;99554.19;5058619;28;20032;-82
2022/05/17 05:51:19;;;;;;;8.60;5.57;;;;;;;26.40;48.55;99554.28;5077106;28;20351;-82
2022/05/17 05:53:44;;;;;;;9.05;4.60;;;;;;;26.42;48.47;99556.03;5076442;28;20028;-82
2022/05/17 05:56:13;;;;;;;9.10;4.43;;;;;;;26.42;48.77;99556.84;5074956;28;20507;-82
2022/05/17 05:59:19;;;;;;;7.50;4.55;;;;;;;26.45;48.57;99561.09;5075270;28;20040;-81
2022/05/17 06:01:54;;;;;;;9.95;5.25;;;;;;;26.44;48.79;99557.56;5075116;28;20020;-81
2022/05/17 06:04:45;;;;;;;6.57;4.00;;;;;;;26.46;48.46;99563.66;5075996;28;20040;-81
2022/05/17 06:07:10;;;;;;;8.35;4.35;;;;;;;26.46;48.79;99557.44;5076141;28;20027;-80
2022/05/17 06:10:04;;;;;;;7.47;4.05;;;;;;;26.44;48.64;99557.56;5059228;28;20107;-81
2022/05/17 06:12:30;;;;;;;8.70;4.65;;;;;;;26.45;48.60;99556.63;5075252;28;20173;-81
2022/05/17 06:14:56;;;;;;;8.35;4.70;;;;;;;26.45;48.50;99572.66;5058109;28;20107;-81
2022/05/17 06:17:27;;;;;;;9.07;4.10;;;;;;;26.44;48.66;99565.59;5075677;28;20034;-81
2022/05/17 06:20:39;;;;;;;7.93;5.25;;;;;;;26.46;48.53;99566.34;5075356;28;20085;-81
2022/05/17 06:23:25;;;;;;;7.00;4.15;;;;;;;26.48;48.39;99566.22;5074868;28;20526;-81
2022/05/17 06:25:51;;;;;;;8.48;4.70;;;;;;;26.49;48.51;99563.38;5076274;28;20077;-82
2022/05/17 06:28:44;;;;;;;7.88;4.72;;;;;;;26.48;48.44;99561.69;5075629;28;20028;-83
2022/05/17 06:31:10;;;;;;;7.53;3.90;;;;;;;26.46;48.37;99569.00;5059039;28;20519;-81
2022/05/17 06:33:35;;;;;;;9.45;4.32;;;;;;;26.50;48.51;99559.75;5079021;28;20024;-82
2022/05/17 06:36:22;;;;;;;7.13;4.38;;;;;;;26.49;48.64;99563.38;5075696;28;20021;-81
2022/05/17 06:39:13;;;;;;;10.18;4.82;;;;;;;26.50;48.55;99559.75;5058218;28;20016;-81
2022/05/17 06:41:39;;;;;;;7.18;4.43;;;;;;;26.50;48.72;99561.56;5058750;28;20462;-81
2022/05/17 06:44:19;;;;;;;8.35;4.30;;;;;;;26.52;48.50;99557.78;5059512;28;20070;-80
2022/05/17 06:46:45;;;;;;;6.25;3.88;;;;;;;26.53;48.62;99554.13;5075875;28;20442;-80
2022/05/17 06:49:11;;;;;;;7.40;4.38;;;;;;;26.54;48.52;99561.19;5075358;28;20074;-82
2022/05/17 06:51:46;;;;;;;7.90;4.20;;;;;;;26.53;48.54;99558.63;5076303;28;20103;-81
2022/05/17 06:54:11;;;;;;;7.97;4.07;;;;;;;26.56;48.72;99552.16;5059174;28;20089;-81
2022/05/17 06:56:37;;;;;;;6.72;4.00;;;;;;;26.57;48.63;99560.06;5074398;28;20052;-81
2022/05/17 06:59:12;;;;;;;10.20;4.90;;;;;;;26.59;48.52;99552.78;5076203;28;20043;-83
2022/05/17 07:01:38;;;;;;;8.68;4.95;;;;;;;26.60;48.62;99553.63;5059323;28;20055;-83
2022/05/17 07:04:13;;;;;;;8.15;4.60;;;;;;;26.61;48.50;99555.31;5077544;28;20561;-83
2022/05/17 07:06:39;;;;;;;7.72;4.07;;;;;;;26.64;48.63;99552.41;5077005;28;20024;-82
2022/05/17 07:09:05;;;;;;;7.70;4.47;;;;;;;26.63;48.54;99553.38;5059759;28;20039;-85
2022/05/17 07:15:04;;;;;;;8.32;4.43;;;;;;;26.64;48.50;99557.75;5081923;28;20527;-82
2022/05/17 07:17:29;;;;;;;10.18;4.00;;;;;;;26.65;48.36;99554.09;5067912;28;20035;-84
2022/05/17 07:19:55;;;;;;;7.97;4.63;;;;;;;26.63;48.32;99554.22;5064056;28;20020;-80
2022/05/17 07:22:23;;;;;;;11.32;4.68;;;;;;;26.65;48.28;99562.13;5081699;28;20028;-82
2022/05/17 07:25:33;;;;;;;8.38;4.47;;;;;;;26.69;48.39;99566.25;5080195;28;20035;-80
2022/05/17 07:28:16;;;;;;;8.48;4.20;;;;;;;26.70;48.25;99570.63;5081234;28;20035;-80
2022/05/17 07:30:43;;;;;;;7.03;4.50;;;;;;;26.69;48.37;99568.91;5080180;28;20024;-80
2022/05/17 07:33:24;;;;;;;9.48;4.45;;;;;;;26.71;48.34;99566.94;5081066;28;20086;-80
2022/05/17 07:36:23;;;;;;;7.93;4.07;;;;;;;26.74;48.26;99571.19;5081206;28;20113;-80
2022/05/17 07:39:04;;;;;;;7.70;4.40;;;;;;;26.73;48.20;99570.34;5081538;28;20389;-80
2022/05/17 07:41:31;;;;;;;8.40;4.28;;;;;;;26.75;48.18;99568.41;5063618;28;20020;-81
2022/05/17 07:44:21;;;;;;;7.35;4.07;;;;;;;26.76;48.25;99564.75;5081324;28;20095;-80
2022/05/17 07:47:12;;;;;;;8.30;4.07;;;;;;;26.78;48.10;99568.13;5065272;28;20028;-82
2022/05/17 07:50:08;;;;;;;9.60;3.72;;;;;;;26.78;48.13;99568.13;5064180;28;20121;-81
2022/05/17 07:52:34;;;;;;;8.68;4.75;;;;;;;26.79;48.09;99575.19;5063398;28;20024;-80
2022/05/17 07:55:30;;;;;;;6.55;4.30;;;;;;;26.81;48.28;99567.88;5063488;28;20036;-82
2022/05/17 07:57:56;;;;;;;7.43;4.05;;;;;;;26.81;48.14;99557.19;5083997;28;20044;-80
2022/05/17 08:10:51;;;;;;;7.72;4.07;;;;;;;26.87;48.27;99569.19;5080974;28;20117;-80
2022/05/17 08:13:17;;;;;;;9.55;4.05;;;;;;;26.89;47.89;99563.69;5063237;28;20037;-81
2022/05/17 08:15:44;;;;;;;6.47;3.85;;;;;;;26.90;48.14;99560.03;5080397;28;20039;-82
2022/05/17 08:18:21;;;;;;;10.27;4.55;;;;;;;26.90;48.00;99557.38;5082031;28;20020;-80
2022/05/17 08:20:47;;;;;;;7.13;4.22;;;;;;;26.93;47.97;99560.66;5082017;28;20035;-82
2022/05/17 08:23:35;;;;;;;7.97;4.55;;;;;;;26.95;48.12;99563.22;5080927;28;20020;-80
2022/05/17 08:28:56;;;;;;;7.00;4.20;;;;;;;26.99;48.22;99558.44;5077724;28;20036;-80
2022/05/17 08:31:23;;;;;;;8.90;4.35;;;;;;;26.99;47.90;99556.63;5077654;28;20059;-80
2022/05/17 08:33:51;;;;;;;8.45;4.22;;;;;;;26.99;47.95;99559.31;5059666;28;20060;-81
2022/05/17 08:36:35;;;;;;;7.68;4.57;;;;;;;27.03;47.85;99558.03;5077821;28;20473;-80
2022/05/17 08:43:03;;;;;;;8.15;3.83;;;;;;;27.07;48.12;99555.97;5079205;28;20112;-81
2022/05/17 08:48:54;;;;;;;9.02;4.80;;;;;;;27.09;48.41;99554.00;5077587;28;20035;-81
2022/05/17 08:51:34;;;;;;;8.57;4.10;;;;;;;27.11;47.96;99549.34;5061897;28;20016;-80
2022/05/17 08:57:47;;;;;;;9.80;4.55;;;;;;;27.16;48.17;99557.00;5077344;28;20059;-80
2022/05/17 09:00:23;;;;;;;9.35;4.43;;;;;;;27.15;47.90;99552.63;5075730;28;20030;-79
2022/05/17 09:02:57;;;;;;;8.98;4.90;;;;;;;27.17;47.95;99553.34;5075961;28;20044;-80
2022/05/17 09:05:38;;;;;;;8.57;4.28;;;;;;;27.19;48.11;99554.06;5058914;28;20119;-80
2022/05/17 09:08:41;;;;;;;7.60;4.20;;;;;;;27.20;48.05;99555.75;5075488;28;20038;-79
2022/05/17 09:11:23;;;;;;;8.25;4.70;;;;;;;27.22;47.85;99553.81;5075868;28;20021;-80
2022/05/17 09:13:57;;;;;;;6.82;4.20;;;;;;;27.22;47.87;99543.09;5059308;28;20028;-81
2022/05/17 09:16:27;;;;;;;8.52;4.45;;;;;;;27.25;47.94;99556.19;5076190;28;20451;-84
2022/05/17 09:18:52;;;;;;;8.50;4.53;;;;;;;27.26;47.73;99555.22;5077228;28;20090;-82
2022/05/17 09:21:34;;;;;;;8.27;3.92;;;;;;;27.27;47.85;99545.34;5077911;28;20025;-83
2022/05/17 09:24:05;;;;;;;8.63;4.47;;;;;;;27.28;48.02;99539.88;5081820;28;20437;-82
2022/05/17 09:26:32;;;;;;;10.00;4.53;;;;;;;27.30;47.95;99540.59;5063446;28;20450;-81
2022/05/17 09:29:08;;;;;;;8.38;4.47;;;;;;;27.32;47.79;99538.59;5080075;28;20025;-82
2022/05/17 09:31:36;;;;;;;9.52;4.47;;;;;;;27.36;47.77;99541.03;5080404;28;20048;-84
2022/05/17 09:34:06;;;;;;;7.03;4.15;;;;;;;27.37;47.55;99542.72;5079930;28;20154;-83
2022/05/17 09:36:48;;;;;;;10.05;4.03;;;;;;;27.39;47.38;99546.97;5081729;28;20021;-84
2022/05/17 09:39:19;;;;;;;8.50;4.45;;;;;;;27.40;47.64;99539.78;5082674;28;20033;-83
2022/05/17 09:41:44;;;;;;;7.97;3.83;;;;;;;27.41;47.85;99542.31;5078344;28;20509;-80
2022/05/17 09:44:13;;;;;;;7.43;3.65;;;;;;;27.43;47.53;99537.69;5075174;28;20048;-79
2022/05/17 09:46:47;;;;;;;6.70;3.92;;;;;;;27.45;47.43;99548.28;5076006;28;20024;-82
2022/05/17 09:52:44;;;;;;;8.30;4.18;;;;;;;27.48;47.60;99539.97;5075996;28;20035;-81
2022/05/17 09:55:22;;;;;;;6.85;3.70;;;;;;;27.52;47.51;99543.22;5076722;28;20025;-80
2022/05/17 09:57:56;;;;;;;8.00;3.67;;;;;;;27.52;47.33;99536.03;5077249;28;20060;-80
2022/05/17 10:00:25;;;;;;;7.20;3.72;;;;;;;27.54;47.31;99542.09;5076641;28;20028;-80
2022/05/17 10:02:54;;;;;;;7.38;4.10;;;;;;;27.56;47.34;99533.94;5075846;28;20031;-80
2022/05/17 10:05:28;;;;;;;6.85;3.97;;;;;;;27.56;47.01;99529.41;5076730;28;20390;-81
2022/05/17 10:08:05;;;;;;;7.47;3.70;;;;;;;27.58;47.24;99538.19;5076171;28;20035;-80
2022/05/17 10:10:36;;;;;;;6.20;3.17;;;;;;;27.60;46.92;99530.88;5075470;28;20028;-81
2022/05/17 10:13:25;;;;;;;6.57;3.58;;;;;;;27.61;47.11;99532.56;5076488;28;20024;-79
2022/05/17 10:15:55;;;;;;;7.78;3.45;;;;;;;27.63;47.13;99528.88;5057659;28;20021;-80
2022/05/17 10:18:42;;;;;;;7.57;3.60;;;;;;;27.65;46.85;99526.94;5058340;28;20465;-81
2022/05/17 10:21:25;;;;;;;5.88;3.22;;;;;;;27.66;46.80;99521.44;5075409;28;20429;-80
2022/05/17 10:24:11;;;;;;;6.57;3.60;;;;;;;27.70;46.90;99530.88;5075675;28;20078;-80
2022/05/17 10:26:42;;;;;;;5.75;3.13;;;;;;;27.71;46.63;99521.84;5044034;28;20066;-80
2022/05/17 10:29:32;;;;;;;6.43;3.15;;;;;;;27.72;46.89;99528.94;5058987;28;20133;-81
2022/05/17 10:32:39;;;;;;;6.38;3.88;;;;;;;27.75;46.92;99527.81;5076944;28;20032;-80
2022/05/17 10:35:22;;;;;;;6.30;3.33;;;;;;;27.76;46.71;99525.97;5027664;28;20101;-83
2022/05/17 10:37:57;;;;;;;8.90;3.60;;;;;;;27.76;46.54;99524.16;5074294;28;20059;-83
2022/05/17 10:40:28;;;;;;;8.00;3.67;;;;;;;27.78;46.86;99527.53;5073993;28;20497;-82
2022/05/17 10:42:56;;;;;;;7.20;3.53;;;;;;;27.79;46.94;99518.50;5057239;28;20021;-81
2022/05/17 10:45:33;;;;;;;7.00;3.63;;;;;;;27.80;46.44;99520.19;5057411;28;20028;-80
2022/05/17 10:48:22;;;;;;;6.65;3.28;;;;;;;27.82;46.71;99515.56;5059439;28;20374;-80
2022/05/17 10:51:11;;;;;;;8.35;3.80;;;;;;;27.83;46.52;99514.56;5073586;28;20119;-80
2022/05/17 10:54:04;;;;;;;8.82;3.50;;;;;;;27.85;46.67;99507.22;5059519;28;20028;-81
2022/05/17 10:56:59;;;;;;;5.80;3.30;;;;;;;27.86;46.48;99514.31;5076402;28;20049;-81
2022/05/17 10:59:25;;;;;;;7.97;3.55;;;;;;;27.88;46.88;99506.97;4988661;28;20045;-81
2022/05/17 11:02:29;;;;;;;7.43;3.40;;;;;;;27.89;46.65;99507.78;5077755;28;20047;-80
2022/05/17 11:05:25;;;;;;;6.63;3.25;;;;;;;27.93;46.66;99505.72;5054811;28;20072;-80
2022/05/17 11:08:05;;;;;;;6.43;3.50;;;;;;;27.95;46.48;99495.69;5075277;28;20446;-81
2022/05/17 11:10:57;;;;;;;6.22;3.30;;;;;;;27.95;46.66;99490.31;5073610;28;20032;-79
2022/05/17 11:13:37;;;;;;;5.97;3.42;;;;;;;27.97;46.65;99482.97;5073600;28;20085;-79
2022/05/17 11:16:18;;;;;;;6.57;3.20;;;;;;;27.98;46.45;99485.53;5075012;28;20024;-81
2022/05/17 11:18:58;;;;;;;7.35;3.40;;;;;;;28.00;46.33;99471.97;5056850;28;20109;-80
2022/05/17 11:21:48;;;;;;;7.68;3.60;;;;;;;28.01;46.31;99482.56;5056872;28;20028;-83
2022/05/17 11:24:52;;;;;;;8.43;3.45;;;;;;;28.03;46.31;99485.09;5056625;28;20056;-81
2022/05/17 11:28:01;;;;;;;4.93;3.10;;;;;;;28.05;46.17;99475.09;5073731;28;20430;-82
2022/05/17 11:30:30;;;;;;;6.45;3.13;;;;;;;28.08;46.76;99479.34;5058422;28;20090;-82
2022/05/17 11:33:21;;;;;;;6.63;3.15;;;;;;;28.08;46.21;99479.34;5075021;28;20123;-82
2022/05/17 11:35:58;;;;;;;4.90;2.75;;;;;;;28.09;46.37;99476.47;5055398;28;20052;-83
2022/05/17 11:38:32;;;;;;;5.25;2.72;;;;;;;28.10;46.15;99470.16;5078514;28;20060;-84
2022/05/17 11:41:19;;;;;;;6.22;3.13;;;;;;;28.12;46.31;99470.84;5077637;28;20362;-81
2022/05/17 11:43:47;;;;;;;;;;;;;;;28.14;46.18;99474.22;5060049;28;20020;-80
2022/05/17 11:46:24;;;;;;;5.07;2.60;;;;;;;28.15;46.46;99470.56;5059850;28;20350;-80
2022/05/17 11:49:13;;;;;;;6.07;3.20;;;;;;;28.17;46.05;99462.38;5060787;28;20024;-82
2022/05/17 11:51:59;;;;;;;4.75;3.05;;;;;;;28.18;46.44;99460.56;5055159;28;20085;-83
2022/05/17 11:54:42;;;;;;;5.25;3.00;;;;;;;28.20;46.03;99463.94;5051104;28;20040;-83
2022/05/17 11:57:38;;;;;;;7.00;3.28;;;;;;;28.21;45.87;99469.16;5060155;28;20501;-80
2022/05/17 12:00:27;;;;;;;5.85;3.42;;;;;;;28.21;45.96;99463.78;5074942;28;20032;-80
2022/05/17 12:03:01;;;;;;;7.35;3.42;;;;;;;28.23;46.03;99464.53;5077792;28;20055;-80
2022/05/17 12:05:43;;;;;;;4.90;3.03;;;;;;;28.24;46.31;99460.03;5082090;28;20445;-81
2022/05/17 12:08:27;;;;;;;6.35;2.85;;;;;;;28.25;46.07;99459.03;5066965;28;20032;-82
2022/05/17 12:11:11;;;;;;;4.57;2.58;;;;;;;28.27;46.27;99451.66;5077210;28;20454;-81
2022/05/17 12:14:15;;;;;;;7.07;3.33;;;;;;;28.28;46.11;99454.22;5078760;28;20510;-83
2022/05/17 12:16:48;;;;;;;6.03;2.85;;;;;;;28.29;45.72;99455.09;5061468;28;20038;-80
2022/05/17 12:19:13;;;;;;;5.55;2.75;;;;;;;28.31;45.95;99441.53;5060080;28;20063;-80
2022/05/17 12:21:58;;;;;;;6.03;3.13;;;;;;;28.30;45.87;99438.00;5060347;28;20055;-81
2022/05/17 12:24:26;;;;;;;5.00;3.13;;;;;;;28.32;45.79;99433.31;5077424;28;20020;-80
2022/05/17 12:27:16;;;;;;;8.30;3.15;;;;;;;28.34;45.92;99442.09;5078681;28;20052;-81
2022/05/17 12:32:29;;;;;;;5.72;3.22;;;;;;;28.37;46.29;99439.09;5077440;28;20397;-82
2022/05/17 12:34:57;;;;;;;7.25;3.10;;;;;;;28.38;45.80;99432.75;5077433;28;20016;-80
2022/05/17 12:37:32;;;;;;;5.05;3.20;;;;;;;28.39;45.77;99429.06;5060299;28;20017;-80
2022/05/17 12:45:34;;;;;;;6.47;3.75;;;;;;;28.43;46.07;99436.84;5078719;28;20173;-81
2022/05/17 12:48:10;;;;;;;6.43;2.97;;;;;;;28.45;46.15;99437.53;5077324;28;20040;-80
2022/05/17 12:50:48;;;;;;;4.60;2.92;;;;;;;28.46;46.22;99444.63;5077542;28;20365;-80
2022/05/17 12:53:36;;;;;;;5.53;3.10;;;;;;;28.47;45.95;99435.56;5077409;28;20070;-82
2022/05/17 12:56:06;;;;;;;6.13;3.00;;;;;;;28.49;45.73;99430.91;5076457;28;20044;-81
2022/05/17 12:58:47;;;;;;;6.65;3.15;;;;;;;28.49;46.00;99429.06;5060998;28;20124;-80
2022/05/17 13:01:13;;;;;;;7.38;3.25;;;;;;;28.50;45.75;99425.41;5075855;28;20028;-81
2022/05/17 13:03:43;;;;;;;6.82;2.95;;;;;;;28.51;45.93;99419.03;5075977;28;20165;-80
2022/05/17 13:06:09;;;;;;;7.03;3.22;;;;;;;28.55;46.03;99422.25;5059161;28;20025;-81
2022/05/17 13:08:37;;;;;;;6.95;3.17;;;;;;;28.54;45.86;99420.56;5078766;28;20025;-80
2022/05/17 13:11:06;;;;;;;6.97;3.17;;;;;;;28.56;46.16;99418.59;5083279;28;20071;-82
2022/05/17 13:13:34;;;;;;;5.22;2.90;;;;;;;28.56;45.93;99413.22;5076981;28;20025;-80
2022/05/17 13:16:22;;;;;;;9.50;3.70;;;;;;;28.58;45.87;99422.00;5076756;28;20095;-82
2022/05/17 13:18:52;;;;;;;7.10;3.20;;;;;;;28.60;45.95;99420.00;5058755;28;20340;-80
2022/05/17 13:21:23;;;;;;;5.43;3.00;;;;;;;28.61;45.74;99415.50;5059316;28;20332;-80
2022/05/17 13:23:51;;;;;;;5.22;2.95;;;;;;;28.62;45.91;99411.81;5076998;28;20023;-80
2022/05/17 13:26:26;;;;;;;6.75;3.10;;;;;;;28.63;46.13;99411.66;5059223;28;20093;-80
2022/05/17 13:28:52;;;;;;;5.60;3.20;;;;;;;28.64;45.78;99410.66;5076935;28;20028;-82
2022/05/17 13:31:21;;;;;;;5.63;2.70;;;;;;;28.65;45.98;99417.72;5076650;28;20024;-81
2022/05/17 13:33:58;;;;;;;5.40;2.90;;;;;;;28.66;45.80;99411.38;5060115;28;20025;-84
2022/05/17 13:36:31;;;;;;;5.05;2.88;;;;;;;28.66;46.01;99408.69;5075967;28;20036;-82
2022/05/17 13:38:57;;;;;;;6.78;2.83;;;;;;;28.67;45.99;99404.16;5076785;28;20032;-80
2022/05/17 13:41:40;;;;;;;6.45;2.92;;;;;;;28.70;45.87;99413.78;5059555;28;20339;-82
2022/05/17 13:44:06;;;;;;;6.63;3.05;;;;;;;28.70;45.81;99405.72;5062479;28;20447;-81
2022/05/17 13:46:40;;;;;;;6.13;3.15;;;;;;;28.72;45.92;99411.78;5076988;28;20035;-80
2022/05/17 13:49:15;;;;;;;5.55;2.70;;;;;;;28.73;45.72;99402.72;5075545;28;20052;-81
2022/05/17 13:51:48;;;;;;;5.38;2.90;;;;;;;28.74;45.89;99399.03;5077345;28;20043;-82
2022/05/17 13:54:25;;;;;;;5.60;2.50;;;;;;;28.76;46.01;99405.97;5077287;28;20032;-83
2022/05/17 13:57:14;;;;;;;7.20;3.00;;;;;;;28.77;45.67;99388.84;5058743;28;20109;-83
2022/05/17 13:59:48;;;;;;;7.07;3.20;;;;;;;28.77;45.78;99391.53;5076278;28;20477;-82
2022/05/17 14:02:16;;;;;;;5.22;3.05;;;;;;;28.80;45.90;99387.72;5076592;28;20029;-80
2022/05/17 14:04:45;;;;;;;7.07;3.30;;;;;;;28.80;45.99;99379.66;5075468;28;20028;-81